createdAt,value
2022-11-12T00:01:23.327Z,101826.17
2022-11-12T00:04:08.797Z,101822.20
2022-11-12T00:06:53.581Z,101831.55
2022-11-12T00:09:38.805Z,101831.62
2022-11-12T00:12:23.630Z,101835.32
2022-11-12T00:15:09.255Z,101834.19
2022-11-12T00:17:54.219Z,101833.98
2022-11-12T00:20:39.138Z,101836.95
2022-11-12T00:23:24.274Z,101834.84
2022-11-12T00:26:09.739Z,101834.35
2022-11-12T00:28:55.210Z,101831.06
2022-11-12T00:31:40.219Z,101836.10
2022-11-12T00:34:25.086Z,101837.85
2022-11-12T00:37:10.171Z,101838.67
2022-11-12T00:39:54.961Z,101839.98
2022-11-12T00:42:40.055Z,101839.16
2022-11-12T00:45:24.861Z,101838.99
2022-11-12T00:48:12.204Z,101833.33
2022-11-12T00:51:02.093Z,101835.13
2022-11-12T00:53:48.426Z,101829.06
2022-11-12T00:56:35.664Z,101833.09
2022-11-12T00:59:21.448Z,101831.02
2022-11-12T01:02:06.404Z,101827.61
2022-11-12T01:04:51.433Z,101831.51
2022-11-12T01:07:36.250Z,101829.48
2022-11-12T01:10:21.008Z,101826.38
2022-11-12T01:13:06.054Z,101820.91
2022-11-12T01:15:50.851Z,101821.71
2022-11-12T01:18:35.993Z,101817.16
2022-11-12T01:21:23.054Z,101819.89
2022-11-12T01:24:08.579Z,101818.27
2022-11-12T01:26:53.317Z,101815.66
2022-11-12T01:29:38.214Z,101813.06
2022-11-12T01:32:22.819Z,101814.70
2022-11-12T01:35:07.879Z,101815.41
2022-11-12T01:37:52.990Z,101811.77
2022-11-12T01:40:37.608Z,101813.98
2022-11-12T01:43:22.682Z,101814.34
2022-11-12T01:46:19.370Z,101815.09
2022-11-12T01:49:08.292Z,101816.41
2022-11-12T01:51:56.274Z,101819.02
2022-11-12T01:54:46.154Z,101816.34
2022-11-12T01:57:37.072Z,101820.87
2022-11-12T02:00:21.928Z,101822.73
2022-11-12T02:03:14.414Z,101822.70
2022-11-12T02:06:07.351Z,101830.39
2022-11-12T02:08:52.789Z,101827.78
2022-11-12T02:11:37.448Z,101825.35
2022-11-12T02:14:22.232Z,101830.12
2022-11-12T02:17:07.456Z,101832.73
2022-11-12T02:19:52.416Z,101827.41
2022-11-12T02:22:37.099Z,101827.95
2022-11-12T02:25:24.027Z,101833.08
2022-11-12T02:28:09.162Z,101834.05
2022-11-12T02:30:54.093Z,101830.70
2022-11-12T02:33:39.362Z,101830.38
2022-11-12T02:36:25.114Z,101831.49
2022-11-12T02:39:09.732Z,101832.71
2022-11-12T02:41:54.784Z,101832.70
2022-11-12T02:44:39.725Z,101830.67
2022-11-12T02:47:24.613Z,101829.45
2022-11-12T02:50:09.527Z,101831.33
2022-11-12T02:52:54.353Z,101831.30
2022-11-12T02:55:39.316Z,101833.98
2022-11-12T02:58:24.601Z,101837.67
2022-11-12T03:01:09.483Z,101831.75
2022-11-12T03:03:54.697Z,101830.80
2022-11-12T03:06:40.000Z,101832.98
2022-11-12T03:09:25.026Z,101838.21
2022-11-12T03:12:10.434Z,101843.47
2022-11-12T03:14:55.499Z,101848.89
2022-11-12T03:17:40.593Z,101853.05
2022-11-12T03:20:26.193Z,101849.48
2022-11-12T03:23:11.117Z,101844.91
2022-11-12T03:25:56.329Z,101842.70
2022-11-12T03:28:40.896Z,101851.02
2022-11-12T03:31:26.069Z,101852.35
2022-11-12T03:34:11.221Z,101849.92
2022-11-12T03:36:56.145Z,101854.94
2022-11-12T03:39:41.005Z,101855.09
2022-11-12T03:42:25.984Z,101850.79
2022-11-12T03:45:10.665Z,101848.85
2022-11-12T03:47:57.462Z,101853.03
2022-11-12T03:50:42.171Z,101845.93
2022-11-12T03:53:28.209Z,101850.71
2022-11-12T03:56:13.187Z,101853.32
2022-11-12T03:58:58.359Z,101850.53
2022-11-12T04:01:43.190Z,101851.02
2022-11-12T04:04:47.870Z,101848.14
2022-11-12T04:07:51.111Z,101846.96
2022-11-12T04:10:35.735Z,101844.83
2022-11-12T04:13:27.091Z,101846.88
2022-11-12T04:16:39.552Z,101849.14
2022-11-12T04:19:42.995Z,101843.61
2022-11-12T04:22:29.360Z,101843.48
2022-11-12T04:25:32.799Z,101842.19
2022-11-12T04:28:17.556Z,101844.20
2022-11-12T04:31:02.824Z,101840.30
2022-11-12T04:33:47.307Z,101841.81
2022-11-12T04:36:32.339Z,101845.19
2022-11-12T04:39:17.254Z,101842.00
2022-11-12T04:42:21.842Z,101840.95
2022-11-12T04:45:09.897Z,101841.21
2022-11-12T04:47:54.893Z,101840.85
2022-11-12T04:50:40.906Z,101839.23
2022-11-12T04:53:27.299Z,101839.39
2022-11-12T04:56:12.435Z,101839.75
2022-11-12T04:58:57.608Z,101836.88
2022-11-12T05:01:42.604Z,101839.46
2022-11-12T05:04:28.686Z,101841.31
2022-11-12T05:07:13.893Z,101842.89
2022-11-12T05:09:58.790Z,101842.47
2022-11-12T05:12:44.083Z,101848.51
2022-11-12T05:15:29.184Z,101848.75
2022-11-12T05:18:14.162Z,101848.06
2022-11-12T05:21:18.616Z,101848.12
2022-11-12T05:24:03.878Z,101852.24
2022-11-12T05:26:48.656Z,101853.02
2022-11-12T05:29:33.842Z,101851.09
2022-11-12T05:32:21.298Z,101851.44
2022-11-12T05:35:06.747Z,101854.16
2022-11-12T05:37:51.764Z,101854.77
2022-11-12T05:40:36.545Z,101853.88
2022-11-12T05:43:21.392Z,101859.61
2022-11-12T05:46:06.301Z,101862.04
2022-11-12T05:48:51.332Z,101858.80
2022-11-12T05:51:36.465Z,101862.56
2022-11-12T05:54:21.265Z,101867.55
2022-11-12T05:57:05.917Z,101873.36
2022-11-12T05:59:50.861Z,101878.90
2022-11-12T06:02:35.572Z,101881.63
2022-11-12T06:05:20.600Z,101877.13
2022-11-12T06:08:05.988Z,101878.00
2022-11-12T06:10:52.246Z,101879.08
2022-11-12T06:13:37.024Z,101885.45
2022-11-12T06:16:21.784Z,101884.74
2022-11-12T06:19:06.890Z,101883.44
2022-11-12T06:21:51.411Z,101887.86
2022-11-12T06:24:36.578Z,101887.58
2022-11-12T06:27:23.287Z,101889.23
2022-11-12T06:30:08.662Z,101891.98
2022-11-12T06:32:54.015Z,101896.16
2022-11-12T06:35:42.721Z,101894.66
2022-11-12T06:38:33.059Z,101898.51
2022-11-12T06:41:17.792Z,101899.52
2022-11-12T06:44:04.083Z,101907.97
2022-11-12T06:46:49.310Z,101907.14
2022-11-12T06:49:34.405Z,101907.70
2022-11-12T06:52:19.180Z,101910.79
2022-11-12T06:55:04.717Z,101913.33
2022-11-12T06:57:53.113Z,101914.54
2022-11-12T07:00:37.895Z,101910.65
2022-11-12T07:03:23.023Z,101908.31
2022-11-12T07:06:17.716Z,101910.20
2022-11-12T07:09:03.654Z,101919.73
2022-11-12T07:11:49.403Z,101924.01
2022-11-12T07:14:34.278Z,101923.22
2022-11-12T07:17:19.124Z,101921.64
2022-11-12T07:20:04.782Z,101924.10
2022-11-12T07:22:49.636Z,101923.66
2022-11-12T07:25:34.804Z,101928.37
2022-11-12T07:28:19.441Z,101927.23
2022-11-12T07:31:07.138Z,101930.95
2022-11-12T07:33:52.233Z,101929.08
2022-11-12T07:36:36.955Z,101930.29
2022-11-12T07:39:21.937Z,101932.07
2022-11-12T07:42:07.239Z,101937.13
2022-11-12T07:44:52.458Z,101938.55
2022-11-12T07:47:37.331Z,101933.23
2022-11-12T07:50:22.306Z,101934.16
2022-11-12T07:53:07.221Z,101932.16
2022-11-12T07:55:56.261Z,101934.94
2022-11-12T07:58:41.447Z,101937.98
2022-11-12T08:01:31.013Z,101944.06
2022-11-12T08:04:16.332Z,101942.41
2022-11-12T08:07:01.601Z,101942.86
2022-11-12T08:09:46.808Z,101943.31
2022-11-12T08:12:31.787Z,101939.40
2022-11-12T08:15:16.526Z,101937.05
2022-11-12T08:18:01.481Z,101936.98
2022-11-12T08:20:46.227Z,101934.24
2022-11-12T08:23:31.393Z,101935.85
2022-11-12T08:26:18.537Z,101944.61
2022-11-12T08:29:08.300Z,101939.67
2022-11-12T08:31:53.769Z,101943.21
2022-11-12T08:34:40.582Z,101938.88
2022-11-12T08:37:26.442Z,101938.02
2022-11-12T08:40:11.947Z,101936.37
2022-11-12T08:43:01.372Z,101943.31
2022-11-12T08:45:47.990Z,101950.50
2022-11-12T08:48:34.157Z,101952.52
2022-11-12T08:51:19.354Z,101951.51
2022-11-12T08:54:04.303Z,101954.30
2022-11-12T08:56:49.003Z,101955.94
2022-11-12T08:59:34.107Z,101960.21
2022-11-12T09:02:19.171Z,101964.77
2022-11-12T09:05:04.690Z,101959.58
2022-11-12T09:07:56.737Z,101961.09
2022-11-12T09:10:42.208Z,101959.64
2022-11-12T09:13:27.134Z,101967.08
2022-11-12T09:16:12.511Z,101975.52
2022-11-12T09:18:57.557Z,101973.95
2022-11-12T09:21:42.232Z,101969.04
2022-11-12T09:24:27.254Z,101969.39
2022-11-12T09:27:12.017Z,101970.63
2022-11-12T09:29:57.177Z,101971.11
2022-11-12T09:32:42.290Z,101974.84
2022-11-12T09:35:27.383Z,101973.70
2022-11-12T09:38:14.488Z,101972.36
2022-11-12T09:41:21.815Z,101973.00
2022-11-12T09:44:13.131Z,101977.95
2022-11-12T09:47:04.082Z,101979.33
2022-11-12T09:49:57.168Z,101983.61
2022-11-12T09:52:47.874Z,101981.55
2022-11-12T09:55:42.090Z,101980.23
2022-11-12T09:58:27.293Z,101977.56
2022-11-12T10:01:21.660Z,101981.40
2022-11-12T10:04:28.449Z,101985.06
2022-11-12T10:07:43.977Z,101984.69
2022-11-12T10:10:36.980Z,101980.94
2022-11-12T10:13:30.941Z,101982.84
2022-11-12T10:16:45.046Z,101983.20
2022-11-12T10:20:00.565Z,101985.67
2022-11-12T10:22:54.587Z,101986.28
2022-11-12T10:25:42.997Z,101992.73
2022-11-12T10:28:41.714Z,101997.34
2022-11-12T10:31:26.857Z,101995.13
2022-11-12T10:34:20.586Z,101998.41
2022-11-12T10:37:21.763Z,101995.65
2022-11-12T10:40:38.216Z,101990.48
2022-11-12T10:43:24.268Z,101990.20
2022-11-12T10:46:18.880Z,101998.50
2022-11-12T10:49:09.863Z,102005.10
2022-11-12T10:51:57.445Z,102002.70
2022-11-12T10:54:42.409Z,101995.80
2022-11-12T10:57:27.198Z,101995.11
2022-11-12T11:00:12.182Z,101992.93
2022-11-12T11:02:58.264Z,101992.85
2022-11-12T11:05:55.299Z,101991.10
2022-11-12T11:08:46.129Z,101998.81
2022-11-12T11:11:31.561Z,101997.06
2022-11-12T11:14:22.336Z,102001.25
2022-11-12T11:17:15.945Z,102004.00
2022-11-12T11:20:02.129Z,101998.02
2022-11-12T11:22:55.943Z,101998.55
2022-11-12T11:25:42.362Z,101999.03
2022-11-12T11:28:45.065Z,102003.59
2022-11-12T11:31:52.630Z,102005.08
2022-11-12T11:34:53.779Z,102005.73
2022-11-12T11:37:55.883Z,102002.66
2022-11-12T11:40:59.786Z,102004.26
2022-11-12T11:44:01.496Z,102004.89
2022-11-12T11:47:05.461Z,101999.39
2022-11-12T11:50:19.709Z,101998.65
2022-11-12T11:53:28.990Z,101995.37
2022-11-12T11:56:26.231Z,102001.91
2022-11-12T11:59:36.848Z,101998.83
2022-11-12T12:02:22.621Z,102001.52
2022-11-12T12:05:29.870Z,102002.92
2022-11-12T12:08:40.774Z,102000.23
2022-11-12T12:11:44.792Z,102006.31
2022-11-12T12:14:36.626Z,102000.75
2022-11-12T12:17:49.568Z,102003.00
2022-11-12T12:20:53.782Z,101998.95
2022-11-12T12:24:20.489Z,101992.42
2022-11-12T12:27:21.843Z,101987.71
2022-11-12T12:30:17.184Z,101988.29
2022-11-12T12:33:15.298Z,101988.89
2022-11-12T12:36:10.832Z,101983.56
2022-11-12T12:39:17.423Z,101986.30
2022-11-12T12:42:21.661Z,101987.89
2022-11-12T12:45:24.861Z,101990.92
2022-11-12T12:48:24.990Z,101980.46
2022-11-12T12:51:10.825Z,101987.05
2022-11-12T12:53:55.964Z,101982.66
2022-11-12T12:56:46.570Z,101983.89
2022-11-12T12:59:31.915Z,101984.71
2022-11-12T13:02:23.909Z,101977.19
2022-11-12T13:05:29.210Z,101984.70
2022-11-12T13:08:22.480Z,101987.38
2022-11-12T13:11:07.869Z,101993.28
2022-11-12T13:13:52.907Z,101994.99
2022-11-12T13:16:50.350Z,101997.30
2022-11-12T13:19:42.990Z,101991.17
2022-11-12T13:22:37.195Z,101988.95
2022-11-12T13:25:28.440Z,101982.98
2022-11-12T13:28:13.978Z,101980.71
2022-11-12T13:31:00.843Z,101982.30
2022-11-12T13:33:47.140Z,101986.83
2022-11-12T13:36:32.294Z,101981.21
2022-11-12T13:39:19.557Z,101988.74
2022-11-12T13:42:36.654Z,101996.18
2022-11-12T13:45:24.337Z,101987.33
2022-11-12T13:48:14.470Z,101991.08
2022-11-12T13:51:10.991Z,101992.22
2022-11-12T13:53:55.904Z,101993.86
2022-11-12T13:56:40.835Z,101995.81
2022-11-12T13:59:25.741Z,101993.50
2022-11-12T14:02:21.798Z,101993.92
2022-11-12T14:05:18.937Z,101986.42
2022-11-12T14:08:22.049Z,101991.23
2022-11-12T14:11:20.088Z,101984.40
2022-11-12T14:14:23.742Z,101988.84
2022-11-12T14:17:59.711Z,101984.63
2022-11-12T14:20:46.150Z,101979.59
2022-11-12T14:23:31.178Z,101985.42
2022-11-12T14:26:42.680Z,101981.32
2022-11-12T14:29:32.953Z,101980.48
2022-11-12T14:32:19.929Z,101982.41
2022-11-12T14:35:29.356Z,101980.08
2022-11-12T14:38:27.065Z,101978.78
2022-11-12T14:41:18.236Z,101978.98
2022-11-12T14:44:13.195Z,101979.20
2022-11-12T14:47:00.119Z,101980.77
2022-11-12T14:49:48.487Z,101980.48
2022-11-12T14:52:41.874Z,101981.90
2022-11-12T14:55:30.985Z,101978.03
2022-11-12T14:58:18.239Z,101983.98
2022-11-12T15:04:45.475Z,101982.73
2022-11-12T15:07:34.116Z,101982.81
2022-11-12T15:10:38.035Z,101987.20
2022-11-12T15:13:26.107Z,101993.89
2022-11-12T15:16:18.103Z,101993.44
2022-11-12T15:19:05.567Z,101996.42
2022-11-12T15:21:53.497Z,101994.48
2022-11-12T15:24:40.583Z,101997.06
2022-11-12T15:27:37.797Z,102000.08
2022-11-12T15:33:23.072Z,102000.46
2022-11-12T15:36:19.493Z,102000.33
2022-11-12T15:39:14.300Z,102004.33
2022-11-12T15:42:04.637Z,102006.67
2022-11-12T15:44:57.563Z,102007.52
2022-11-12T15:47:44.103Z,102013.60
2022-11-12T15:50:31.896Z,102018.21
2022-11-12T15:53:18.995Z,102021.01
2022-11-12T15:56:08.477Z,102013.13
2022-11-12T15:58:55.492Z,102011.90
2022-11-12T16:01:41.750Z,102017.88
2022-11-12T16:04:28.323Z,102011.38
2022-11-12T16:07:14.834Z,102015.73
2022-11-12T16:10:00.971Z,102016.52
2022-11-12T16:12:48.100Z,102023.07
2022-11-12T16:15:35.696Z,102033.90
2022-11-12T16:18:23.053Z,102031.95
2022-11-12T16:21:09.753Z,102039.66
2022-11-12T16:23:56.338Z,102043.09
2022-11-12T16:26:42.644Z,102046.30
2022-11-12T16:29:29.174Z,102047.87
2022-11-12T16:32:19.243Z,102046.85
2022-11-12T16:35:07.231Z,102046.34
2022-11-12T16:37:54.816Z,102042.35
2022-11-12T16:40:42.456Z,102046.79
2022-11-12T16:43:28.978Z,102042.71
2022-11-12T16:46:28.115Z,102045.27
2022-11-12T16:49:15.486Z,102044.95
2022-11-12T16:52:01.855Z,102045.67
2022-11-12T16:54:48.007Z,102045.36
2022-11-12T16:57:34.602Z,102046.83
2022-11-12T17:00:23.051Z,102049.10
2022-11-12T17:03:12.963Z,102049.51
2022-11-12T17:05:59.434Z,102046.98
2022-11-12T17:08:55.384Z,102049.70
2022-11-12T17:11:41.746Z,102055.30
2022-11-12T17:14:28.627Z,102055.08
2022-11-12T17:17:15.013Z,102046.95
2022-11-12T17:20:01.336Z,102049.89
2022-11-12T17:22:47.899Z,102050.73
2022-11-12T17:25:33.980Z,102044.82
2022-11-12T17:28:20.598Z,102044.92
2022-11-12T17:31:10.578Z,102046.08
2022-11-12T17:33:56.714Z,102049.67
2022-11-12T17:36:43.937Z,102048.23
2022-11-12T17:39:30.786Z,102046.15
2022-11-12T17:42:17.319Z,102045.16
2022-11-12T17:45:04.045Z,102046.19
2022-11-12T17:47:50.226Z,102044.94
2022-11-12T17:50:36.854Z,102045.52
2022-11-12T17:53:23.209Z,102043.27
2022-11-12T17:56:12.194Z,102043.11
2022-11-12T17:58:59.742Z,102043.71
2022-11-12T18:01:46.217Z,102049.50
2022-11-12T18:04:32.459Z,102055.31
2022-11-12T18:07:18.719Z,102051.61
2022-11-12T18:10:05.227Z,102048.65
2022-11-12T18:12:52.183Z,102054.34
2022-11-12T18:15:38.735Z,102056.54
2022-11-12T18:18:24.808Z,102048.87
2022-11-12T18:21:13.282Z,102044.64
2022-11-12T18:23:59.375Z,102047.11
2022-11-12T18:26:46.191Z,102035.88
2022-11-12T18:29:32.275Z,102034.50
2022-11-12T18:32:18.511Z,102033.14
2022-11-12T18:35:05.727Z,102027.44
2022-11-12T18:37:52.532Z,102028.08
2022-11-12T18:40:38.824Z,102036.55
2022-11-12T18:43:25.124Z,102040.09
2022-11-12T18:46:11.915Z,102042.45
2022-11-12T18:48:58.448Z,102038.91
2022-11-12T18:51:44.836Z,102040.55
2022-11-12T18:54:30.894Z,102043.84
2022-11-12T18:57:17.098Z,102040.45
2022-11-12T19:00:04.159Z,102040.84
2022-11-12T19:02:51.128Z,102046.59
2022-11-12T19:05:37.637Z,102046.05
2022-11-12T19:08:23.696Z,102035.50
2022-11-12T19:11:12.462Z,102045.18
2022-11-12T19:13:59.161Z,102044.00
2022-11-12T19:16:45.540Z,102039.29
2022-11-12T19:19:31.695Z,102043.93
2022-11-12T19:22:18.183Z,102042.02
2022-11-12T19:25:04.441Z,102045.05
2022-11-12T19:27:50.642Z,102052.73
2022-11-12T19:30:37.156Z,102053.02
2022-11-12T19:33:24.064Z,102054.08
2022-11-12T19:36:14.168Z,102055.14
2022-11-12T19:39:02.410Z,102065.91
2022-11-12T19:41:48.754Z,102058.55
2022-11-12T19:44:35.046Z,102054.44
2022-11-12T19:47:21.494Z,102060.37
2022-11-12T19:50:08.266Z,102059.86
2022-11-12T19:52:54.916Z,102065.36
2022-11-12T19:55:41.362Z,102062.25
2022-11-12T19:58:28.220Z,102062.93
2022-11-12T20:01:17.691Z,102057.20
2022-11-12T20:04:04.436Z,102046.24
2022-11-12T20:06:50.706Z,102051.96
2022-11-12T20:09:36.901Z,102061.58
2022-11-12T20:12:25.193Z,102066.67
2022-11-12T20:15:11.768Z,102058.27
2022-11-12T20:17:57.709Z,102060.69
2022-11-12T20:20:54.183Z,102069.58
2022-11-12T20:23:45.459Z,102060.99
2022-11-12T20:26:31.763Z,102065.45
2022-11-12T20:32:43.557Z,102073.02
2022-11-12T20:35:30.076Z,102076.66
2022-11-12T20:38:16.429Z,102072.77
2022-11-12T20:41:04.688Z,102076.59
2022-11-12T20:43:57.120Z,102083.05
2022-11-12T20:46:43.682Z,102078.77
2022-11-12T20:49:29.869Z,102077.07
2022-11-12T20:52:16.281Z,102083.48
2022-11-12T20:55:02.683Z,102081.89
2022-11-12T20:57:49.387Z,102074.63
2022-11-12T21:00:35.839Z,102079.58
2022-11-12T21:03:21.970Z,102084.50
2022-11-12T21:06:11.658Z,102078.88
2022-11-12T21:09:00.114Z,102076.97
2022-11-12T21:11:46.307Z,102075.45
2022-11-12T21:14:32.462Z,102076.73
2022-11-12T21:17:19.790Z,102079.47
2022-11-12T21:20:06.707Z,102072.15
2022-11-12T21:22:53.381Z,102073.41
2022-11-12T21:25:40.354Z,102073.09
2022-11-12T21:28:27.051Z,102073.16
2022-11-12T21:31:17.950Z,102073.19
2022-11-12T21:34:04.741Z,102075.77
2022-11-12T21:36:51.514Z,102078.41
2022-11-12T21:39:37.746Z,102077.82
2022-11-12T21:42:24.108Z,102072.70
2022-11-12T21:45:11.312Z,102080.61
2022-11-12T21:47:57.340Z,102083.87
2022-11-12T21:50:43.880Z,102084.05
2022-11-12T21:53:30.619Z,102085.47
2022-11-12T21:56:18.699Z,102086.67
2022-11-12T21:59:05.151Z,102080.88
2022-11-12T22:01:51.461Z,102085.13
2022-11-12T22:04:38.474Z,102086.00
2022-11-12T22:07:25.125Z,102081.67
2022-11-12T22:10:11.565Z,102082.92
2022-11-12T22:13:25.365Z,102082.55
2022-11-12T22:16:07.238Z,102083.82
2022-11-12T22:18:54.978Z,102081.35
2022-11-12T22:21:41.826Z,102083.68
2022-11-12T22:24:27.847Z,102080.17
2022-11-12T22:27:14.435Z,102076.83
2022-11-12T22:30:00.556Z,102071.81
2022-11-12T22:32:46.681Z,102076.38
2022-11-12T22:35:33.548Z,102071.88
2022-11-12T22:38:19.944Z,102069.29
2022-11-12T22:41:08.106Z,102070.02
2022-11-12T22:43:56.313Z,102071.83
2022-11-12T22:46:42.828Z,102068.84
2022-11-12T22:49:29.598Z,102074.20
2022-11-12T22:52:15.622Z,102075.85
2022-11-12T22:55:02.041Z,102068.70
2022-11-12T22:57:48.365Z,102070.75
2022-11-12T23:00:34.537Z,102071.80
2022-11-12T23:03:20.848Z,102073.84
2022-11-12T23:06:07.205Z,102076.45
2022-11-12T23:08:55.016Z,102078.73
2022-11-12T23:11:41.576Z,102078.42
2022-11-12T23:14:27.701Z,102077.27
2022-11-12T23:17:14.340Z,102076.30
2022-11-12T23:20:00.432Z,102078.59
2022-11-12T23:22:46.457Z,102079.09
2022-11-12T23:25:34.678Z,102072.98
2022-11-12T23:28:21.205Z,102073.63
2022-11-12T23:31:13.261Z,102075.19
2022-11-12T23:34:00.609Z,102073.73
2022-11-12T23:36:46.991Z,102066.34
2022-11-12T23:39:33.097Z,102067.31
2022-11-12T23:42:19.622Z,102072.31
2022-11-12T23:45:06.867Z,102068.73
2022-11-12T23:47:54.119Z,102066.82
2022-11-12T23:50:40.191Z,102062.94
2022-11-12T23:53:26.783Z,102064.08
2022-11-12T23:56:15.979Z,102062.65
2022-11-12T23:59:02.559Z,102064.16
